createdAt,value
2018-06-29T00:00:40.338Z,98485.68
2018-06-29T00:03:09.315Z,98491.92
2018-06-29T00:05:38.791Z,98485.22
2018-06-29T00:08:07.729Z,98488.88
2018-06-29T00:10:36.878Z,98490.06
2018-06-29T00:13:06.062Z,98482.48
2018-06-29T00:15:35.065Z,98490.55
2018-06-29T00:18:04.122Z,98490.55
2018-06-29T00:20:33.174Z,98485.86
2018-06-29T00:23:02.294Z,98480.11
2018-06-29T00:25:31.341Z,98487.13
2018-06-29T00:28:00.668Z,98479.96
2018-06-29T00:30:29.873Z,98480.88
2018-06-29T00:32:58.879Z,98479.39
2018-06-29T00:35:27.956Z,98480.42
2018-06-29T00:37:57.083Z,98478.41
2018-06-29T00:40:26.103Z,98467.66
2018-06-29T00:42:55.430Z,98464.42
2018-06-29T00:45:24.451Z,98458.48
2018-06-29T00:47:53.477Z,98445.64
2018-06-29T00:50:22.889Z,98450.05
2018-06-29T00:52:51.803Z,98448.80
2018-06-29T00:55:20.872Z,98447.77
2018-06-29T00:57:50.176Z,98444.34
2018-06-29T01:00:19.125Z,98440.60
2018-06-29T01:02:48.186Z,98434.93
2018-06-29T01:05:17.800Z,98447.08
2018-06-29T01:07:46.798Z,98438.51
2018-06-29T01:10:16.120Z,98441.09
2018-06-29T01:12:45.215Z,98437.25
2018-06-29T01:15:14.303Z,98440.91
2018-06-29T01:17:43.343Z,98440.53
2018-06-29T01:20:12.983Z,98440.30
2018-06-29T01:22:41.831Z,98440.84
2018-06-29T01:25:10.729Z,98438.78
2018-06-29T01:27:39.733Z,98441.25
2018-06-29T01:30:08.743Z,98434.24
2018-06-29T01:32:37.607Z,98435.96
2018-06-29T01:35:06.749Z,98438.85
2018-06-29T01:37:35.721Z,98432.03
2018-06-29T01:40:05.074Z,98439.92
2018-06-29T01:42:34.092Z,98434.16
2018-06-29T01:45:03.060Z,98434.39
2018-06-29T01:47:32.119Z,98440.11
2018-06-29T01:50:01.155Z,98438.20
2018-06-29T01:52:30.332Z,98440.98
2018-06-29T01:54:59.303Z,98436.37
2018-06-29T01:57:28.483Z,98432.70
2018-06-29T01:59:57.471Z,98435.69
2018-06-29T02:02:26.380Z,98435.72
2018-06-29T02:04:55.430Z,98440.41
2018-06-29T02:07:24.404Z,98436.06
2018-06-29T02:09:53.480Z,98436.06
2018-06-29T02:12:22.910Z,98433.20
2018-06-29T02:14:51.848Z,98432.67
2018-06-29T02:17:21.082Z,98439.64
2018-06-29T02:21:19.110Z,98438.50
2018-06-29T02:23:48.051Z,98440.56
2018-06-29T02:26:17.111Z,98441.25
2018-06-29T02:28:46.434Z,98439.53
2018-06-29T02:31:15.626Z,98438.63
2018-06-29T02:34:48.110Z,98435.20
2018-06-29T02:37:17.280Z,98438.55
2018-06-29T02:39:46.277Z,98432.19
2018-06-29T02:42:15.433Z,98429.10
2018-06-29T02:44:44.487Z,98427.58
2018-06-29T02:47:13.512Z,98421.48
2018-06-29T02:49:42.551Z,98417.94
2018-06-29T02:52:11.503Z,98426.67
2018-06-29T02:54:40.495Z,98424.99
2018-06-29T02:57:10.079Z,98428.72
2018-06-29T02:59:39.148Z,98427.42
2018-06-29T03:02:08.203Z,98433.25
2018-06-29T03:04:37.461Z,98434.28
2018-06-29T03:07:06.527Z,98434.39
2018-06-29T03:09:35.612Z,98442.05
2018-06-29T03:12:04.990Z,98446.45
2018-06-29T03:14:33.980Z,98447.98
2018-06-29T03:17:03.130Z,98436.50
2018-06-29T03:19:32.161Z,98442.69
2018-06-29T03:22:01.141Z,98438.13
2018-06-29T03:24:30.130Z,98441.17
2018-06-29T03:26:59.601Z,98439.34
2018-06-29T03:29:28.519Z,98439.81
2018-06-29T03:31:57.463Z,98442.56
2018-06-29T03:34:26.702Z,98437.20
2018-06-29T03:36:55.723Z,98441.85
2018-06-29T03:39:24.683Z,98438.47
2018-06-29T03:41:53.928Z,98436.30
2018-06-29T03:44:22.797Z,98437.78
2018-06-29T03:46:51.697Z,98438.47
2018-06-29T03:49:21.233Z,98432.11
2018-06-29T03:51:50.148Z,98431.45
2018-06-29T03:54:19.248Z,98432.63
2018-06-29T03:56:48.670Z,98436.30
2018-06-29T03:59:17.664Z,98437.28
2018-06-29T04:01:46.716Z,98434.96
2018-06-29T04:04:15.903Z,98439.12
2018-06-29T04:06:45.007Z,98432.63
2018-06-29T04:09:13.992Z,98438.47
2018-06-29T04:11:43.267Z,98438.03
2018-06-29T04:14:12.165Z,98437.70
2018-06-29T04:16:41.147Z,98443.22
2018-06-29T04:19:10.535Z,98449.39
2018-06-29T04:21:39.594Z,98448.06
2018-06-29T04:24:08.691Z,98450.39
2018-06-29T04:26:37.682Z,98453.36
2018-06-29T04:29:06.712Z,98452.38
2018-06-29T04:31:35.847Z,98459.20
2018-06-29T04:34:05.045Z,98459.66
2018-06-29T04:36:33.940Z,98462.83
2018-06-29T04:39:02.904Z,98457.98
2018-06-29T04:41:32.357Z,98448.06
2018-06-29T04:44:01.398Z,98455.27
2018-06-29T04:46:30.439Z,98446.85
2018-06-29T04:48:59.892Z,98448.93
2018-06-29T04:51:29.050Z,98443.50
2018-06-29T04:53:58.035Z,98447.41
2018-06-29T04:56:27.167Z,98444.11
2018-06-29T04:58:56.262Z,98450.87
2018-06-29T05:01:25.268Z,98450.61
2018-06-29T05:03:54.615Z,98449.19
2018-06-29T05:06:23.686Z,98446.44
2018-06-29T05:08:52.782Z,98439.12
2018-06-29T05:11:22.415Z,98446.56
2018-06-29T05:13:51.880Z,98452.03
2018-06-29T05:16:20.914Z,98449.34
2018-06-29T05:18:50.351Z,98450.09
2018-06-29T05:21:19.351Z,98448.31
2018-06-29T05:23:48.442Z,98444.01
2018-06-29T05:26:17.883Z,98445.43
2018-06-29T05:28:46.798Z,98450.15
2018-06-29T05:31:15.943Z,98443.45
2018-06-29T05:33:45.373Z,98443.91
2018-06-29T05:36:14.370Z,98444.27
2018-06-29T05:38:43.284Z,98448.95
2018-06-29T05:41:12.304Z,98450.98
2018-06-29T05:43:41.385Z,98459.86
2018-06-29T05:46:10.537Z,98459.70
2018-06-29T05:48:39.903Z,98459.17
2018-06-29T05:51:09.037Z,98453.31
2018-06-29T05:53:38.210Z,98455.34
2018-06-29T05:56:07.787Z,98453.99
2018-06-29T05:58:36.835Z,98455.83
2018-06-29T06:01:09.316Z,98452.66
2018-06-29T06:03:38.532Z,98448.79
2018-06-29T06:06:07.987Z,98452.48
2018-06-29T06:08:37.037Z,98452.64
2018-06-29T06:11:06.400Z,98450.12
2018-06-29T06:13:35.519Z,98446.27
2018-06-29T06:16:04.852Z,98454.00
2018-06-29T06:18:33.835Z,98454.30
2018-06-29T06:21:02.823Z,98444.25
2018-06-29T06:23:32.128Z,98451.96
2018-06-29T06:26:01.188Z,98455.30
2018-06-29T06:28:30.240Z,98460.34
2018-06-29T06:30:59.284Z,98450.13
2018-06-29T06:33:28.382Z,98459.81
2018-06-29T06:35:57.453Z,98458.09
2018-06-29T06:38:26.565Z,98459.31
2018-06-29T06:40:55.556Z,98455.97
2018-06-29T06:43:24.623Z,98449.41
2018-06-29T06:45:54.162Z,98445.31
2018-06-29T06:48:23.079Z,98446.45
2018-06-29T06:50:52.022Z,98449.49
2018-06-29T06:53:21.447Z,98457.61
2018-06-29T06:55:50.534Z,98452.59
2018-06-29T06:58:19.596Z,98447.18
2018-06-29T07:00:48.829Z,98443.76
2018-06-29T07:03:17.927Z,98442.12
2018-06-29T07:05:46.876Z,98439.37
2018-06-29T07:08:16.198Z,98439.88
2018-06-29T07:10:45.381Z,98443.94
2018-06-29T07:13:14.428Z,98440.03
2018-06-29T07:15:43.683Z,98439.39
2018-06-29T07:18:12.807Z,98437.44
2018-06-29T07:20:41.781Z,98440.19
2018-06-29T07:23:11.158Z,98442.44
2018-06-29T07:25:40.143Z,98432.98
2018-06-29T07:28:09.299Z,98438.68
2018-06-29T07:30:38.646Z,98434.65
2018-06-29T07:33:07.498Z,98436.57
2018-06-29T07:35:36.560Z,98434.78
2018-06-29T07:38:06.156Z,98432.48
2018-06-29T07:40:35.001Z,98430.36
2018-06-29T07:43:03.938Z,98428.56
2018-06-29T07:45:32.840Z,98430.80
2018-06-29T07:48:01.989Z,98424.34
2018-06-29T07:50:31.014Z,98423.56
2018-06-29T07:53:00.180Z,98425.53
2018-06-29T07:55:29.226Z,98412.17
2018-06-29T07:57:58.213Z,98409.12
2018-06-29T08:00:27.554Z,98409.20
2018-06-29T08:02:56.377Z,98415.60
2018-06-29T08:05:25.370Z,98415.76
2018-06-29T08:07:54.975Z,98406.20
2018-06-29T08:10:23.876Z,98410.85
2018-06-29T08:12:52.796Z,98407.54
2018-06-29T08:15:22.029Z,98404.26
2018-06-29T08:17:50.930Z,98403.56
2018-06-29T08:20:19.866Z,98404.89
2018-06-29T08:22:48.743Z,98409.02
2018-06-29T08:25:18.162Z,98405.17
2018-06-29T08:27:47.146Z,98400.94
2018-06-29T08:30:16.452Z,98408.31
2018-06-29T08:32:45.478Z,98409.28
2018-06-29T08:35:14.476Z,98408.84
2018-06-29T08:37:43.696Z,98408.86
2018-06-29T08:40:12.710Z,98404.52
2018-06-29T08:42:41.785Z,98404.68
2018-06-29T08:45:11.257Z,98400.27
2018-06-29T08:47:40.269Z,98409.83
2018-06-29T08:50:09.302Z,98408.92
2018-06-29T08:52:38.707Z,98403.84
2018-06-29T08:55:07.773Z,98405.02
2018-06-29T08:57:36.821Z,98401.44
2018-06-29T09:00:07.431Z,98403.91
2018-06-29T09:02:36.342Z,98403.92
2018-06-29T09:05:05.897Z,98404.23
2018-06-29T09:07:35.696Z,98407.45
2018-06-29T09:10:05.294Z,98405.48
2018-06-29T09:12:34.295Z,98407.36
2018-06-29T09:15:03.967Z,98414.27
2018-06-29T09:17:33.173Z,98416.63
2018-06-29T09:20:02.271Z,98412.27
2018-06-29T09:22:31.376Z,98418.80
2018-06-29T09:25:00.381Z,98422.11
2018-06-29T09:27:29.481Z,98417.88
2018-06-29T09:29:58.668Z,98422.78
2018-06-29T09:32:27.581Z,98417.96
2018-06-29T09:34:56.447Z,98422.39
2018-06-29T09:37:25.679Z,98421.96
2018-06-29T09:39:54.923Z,98423.39
2018-06-29T09:42:23.804Z,98426.95
2018-06-29T09:44:52.999Z,98420.09
2018-06-29T09:47:21.914Z,98432.13
2018-06-29T09:49:50.812Z,98426.15
2018-06-29T09:52:19.792Z,98423.94
2018-06-29T09:54:48.900Z,98426.25
2018-06-29T09:57:17.862Z,98420.38
2018-06-29T09:59:46.791Z,98420.05
2018-06-29T10:02:15.868Z,98415.22
2018-06-29T10:04:45.098Z,98416.95
2018-06-29T10:07:14.545Z,98414.64
2018-06-29T10:09:43.402Z,98411.78
2018-06-29T10:12:12.316Z,98413.84
2018-06-29T10:14:41.643Z,98412.20
2018-06-29T10:17:10.687Z,98412.72
2018-06-29T10:19:39.684Z,98406.05
2018-06-29T10:22:09.155Z,98404.43
2018-06-29T10:24:38.110Z,98404.62
2018-06-29T10:27:07.115Z,98404.73
2018-06-29T10:29:36.332Z,98403.78
2018-06-29T10:32:05.294Z,98411.16
2018-06-29T10:34:36.561Z,98405.49
2018-06-29T10:37:05.502Z,98405.77
2018-06-29T10:39:34.345Z,98403.23
2018-06-29T10:42:03.680Z,98404.62
2018-06-29T10:44:33.592Z,98406.05
2018-06-29T10:47:02.415Z,98402.00
2018-06-29T10:49:31.955Z,98394.53
2018-06-29T10:52:00.838Z,98393.06
2018-06-29T10:54:29.719Z,98393.36
2018-06-29T10:56:59.654Z,98380.67
2018-06-29T10:59:28.589Z,98383.34
2018-06-29T11:01:57.603Z,98384.22
2018-06-29T11:04:26.916Z,98378.00
2018-06-29T11:06:55.763Z,98376.24
2018-06-29T11:09:24.709Z,98380.92
2018-06-29T11:11:53.642Z,98369.91
2018-06-29T11:14:22.485Z,98364.20
2018-06-29T11:16:51.331Z,98369.30
2018-06-29T11:19:20.710Z,98353.05
2018-06-29T11:21:49.488Z,98357.66
2018-06-29T11:24:18.441Z,98353.91
2018-06-29T11:26:47.609Z,98352.14
2018-06-29T11:29:16.780Z,98346.63
2018-06-29T11:31:45.695Z,98348.06
2018-06-29T11:34:15.008Z,98348.78
2018-06-29T11:36:43.912Z,98342.99
2018-06-29T11:39:14.289Z,98346.58
2018-06-29T11:41:43.998Z,98335.01
2018-06-29T11:44:13.779Z,98334.31
2018-06-29T11:46:42.724Z,98337.50
2018-06-29T11:49:11.635Z,98328.28
2018-06-29T11:51:40.480Z,98330.89
2018-06-29T11:54:09.580Z,98328.62
2018-06-29T11:56:38.500Z,98322.05
2018-06-29T11:59:07.385Z,98323.06
2018-06-29T12:01:36.234Z,98320.72
2018-06-29T12:04:05.781Z,98320.59
2018-06-29T12:06:34.626Z,98314.04
2018-06-29T12:09:03.731Z,98317.08
2018-06-29T12:11:33.035Z,98316.24
2018-06-29T12:14:01.924Z,98314.83
2018-06-29T12:16:30.872Z,98317.89
2018-06-29T12:19:00.326Z,98321.16
2018-06-29T12:21:29.206Z,98315.49
2018-06-29T12:23:58.056Z,98312.84
2018-06-29T12:26:27.442Z,98321.67
2018-06-29T12:28:56.267Z,98313.70
2018-06-29T12:31:25.164Z,98307.25
2018-06-29T12:33:54.094Z,98313.02
2018-06-29T12:36:22.928Z,98307.69
2018-06-29T12:38:51.858Z,98311.33
2018-06-29T12:41:20.840Z,98307.38
2018-06-29T12:43:50.067Z,98297.38
2018-06-29T12:46:19.303Z,98309.56
2018-06-29T12:48:48.617Z,98306.65
2018-06-29T12:51:17.627Z,98309.98
2018-06-29T12:53:46.677Z,98312.38
2018-06-29T12:56:16.323Z,98317.88
2018-06-29T12:58:45.258Z,98313.62
2018-06-29T13:01:14.268Z,98307.68
2018-06-29T13:03:43.345Z,98305.30
2018-06-29T13:06:12.404Z,98304.86
2018-06-29T13:08:42.239Z,98312.33
2018-06-29T13:11:11.666Z,98306.19
2018-06-29T13:13:40.633Z,98304.06
2018-06-29T13:16:09.677Z,98301.47
2018-06-29T13:18:39.171Z,98298.34
2018-06-29T13:21:08.245Z,98298.86
2018-06-29T13:23:37.232Z,98296.39
2018-06-29T13:26:06.526Z,98301.08
2018-06-29T13:28:35.709Z,98297.03
2018-06-29T13:31:04.713Z,98300.63
2018-06-29T13:33:33.804Z,98302.36
2018-06-29T13:36:02.935Z,98293.33
2018-06-29T13:38:31.940Z,98297.38
2018-06-29T13:41:01.148Z,98296.40
2018-06-29T13:43:30.067Z,98287.66
2018-06-29T13:45:58.955Z,98297.33
2018-06-29T13:48:27.855Z,98299.28
2018-06-29T13:50:56.811Z,98296.28
2018-06-29T13:53:25.971Z,98302.42
2018-06-29T13:55:55.111Z,98299.61
2018-06-29T13:58:24.060Z,98306.24
2018-06-29T14:00:53.119Z,98317.79
2018-06-29T14:03:22.083Z,98317.36
2018-06-29T14:05:51.125Z,98319.57
2018-06-29T14:08:19.996Z,98320.39
2018-06-29T14:10:49.030Z,98328.88
2018-06-29T14:13:18.025Z,98315.22
2018-06-29T14:15:47.082Z,98326.30
2018-06-29T14:18:16.570Z,98317.32
2018-06-29T14:20:45.495Z,98315.05
2018-06-29T14:23:14.522Z,98309.56
2018-06-29T14:25:43.582Z,98305.41
2018-06-29T14:28:12.599Z,98306.23
2018-06-29T14:30:41.620Z,98304.41
2018-06-29T14:33:11.080Z,98309.87
2018-06-29T14:35:40.188Z,98306.70
2018-06-29T14:38:09.238Z,98302.73
2018-06-29T14:40:38.580Z,98302.97
2018-06-29T14:43:07.696Z,98298.94
2018-06-29T14:45:36.588Z,98306.92
2018-06-29T14:48:05.841Z,98307.34
2018-06-29T14:50:34.860Z,98308.56
2018-06-29T14:53:04.023Z,98309.42
2018-06-29T14:55:33.203Z,98302.02
2018-06-29T14:58:02.834Z,98309.54
2018-06-29T15:00:31.749Z,98305.52
2018-06-29T15:03:01.101Z,98305.08
2018-06-29T15:05:30.120Z,98309.08
2018-06-29T15:07:59.280Z,98303.05
2018-06-29T15:10:28.738Z,98314.61
2018-06-29T15:12:57.754Z,98316.61
2018-06-29T15:15:27.685Z,98317.34
2018-06-29T15:17:56.878Z,98312.35
2018-06-29T15:20:26.068Z,98310.63
2018-06-29T15:22:55.131Z,98313.83
2018-06-29T15:25:24.812Z,98314.45
2018-06-29T15:27:54.042Z,98316.53
2018-06-29T15:30:24.185Z,98318.81
2018-06-29T15:32:53.741Z,98323.44
2018-06-29T15:35:22.991Z,98320.32
2018-06-29T15:37:51.905Z,98317.61
2018-06-29T15:40:21.359Z,98317.59
2018-06-29T15:42:56.475Z,98328.11
2018-06-29T15:45:25.894Z,98318.94
2018-06-29T15:47:55.117Z,98315.06
2018-06-29T15:50:42.088Z,98313.44
2018-06-29T15:53:12.137Z,98309.08
2018-06-29T15:55:48.494Z,98309.45
2018-06-29T15:58:21.607Z,98305.56
2018-06-29T16:00:54.621Z,98312.78
2018-06-29T16:03:27.560Z,98314.97
2018-06-29T16:05:57.156Z,98318.48
2018-06-29T16:08:26.438Z,98320.52
2018-06-29T16:10:55.659Z,98324.22
2018-06-29T16:13:25.798Z,98326.68
2018-06-29T16:15:59.271Z,98324.92
2018-06-29T16:18:29.094Z,98319.86
2018-06-29T16:20:58.169Z,98318.89
2018-06-29T16:23:31.279Z,98323.03
2018-06-29T16:26:01.277Z,98321.73
2018-06-29T16:28:30.248Z,98325.89
2018-06-29T16:30:59.470Z,98325.61
2018-06-29T16:33:28.780Z,98323.48
2018-06-29T16:36:01.791Z,98328.34
2018-06-29T16:38:36.894Z,98328.48
2018-06-29T16:41:06.521Z,98327.83
2018-06-29T16:43:39.171Z,98331.36
2018-06-29T16:46:11.900Z,98334.73
2018-06-29T16:48:42.144Z,98329.19
2018-06-29T16:51:17.420Z,98329.17
2018-06-29T16:53:46.866Z,98332.52
2018-06-29T16:56:17.509Z,98332.52
2018-06-29T16:58:46.772Z,98334.73
2018-06-29T17:01:15.952Z,98334.27
2018-06-29T17:03:45.631Z,98338.66
2018-06-29T17:06:14.796Z,98334.64
2018-06-29T17:08:44.009Z,98336.02
2018-06-29T17:11:13.459Z,98339.91
2018-06-29T17:13:43.735Z,98341.04
2018-06-29T17:16:15.559Z,98334.51
2018-06-29T17:18:44.909Z,98338.72
2018-06-29T17:21:14.048Z,98342.09
2018-06-29T17:23:51.303Z,98333.38
2018-06-29T17:26:20.453Z,98330.52
2018-06-29T17:28:49.991Z,98328.70
2018-06-29T17:31:25.297Z,98328.34
2018-06-29T17:33:55.973Z,98317.31
2018-06-29T17:36:30.623Z,98316.80
2018-06-29T17:38:59.870Z,98319.31
2018-06-29T17:41:34.739Z,98317.64
2018-06-29T17:44:07.245Z,98317.64
2018-06-29T17:46:40.316Z,98316.16
2018-06-29T17:49:12.835Z,98313.47
2018-06-29T17:51:54.250Z,98317.35
2018-06-29T17:54:27.313Z,98311.33
2018-06-29T17:56:57.581Z,98311.84
2018-06-29T17:59:26.852Z,98315.81
2018-06-29T18:01:56.942Z,98312.80
2018-06-29T18:04:28.505Z,98314.50
2018-06-29T18:07:01.354Z,98315.52
2018-06-29T18:09:31.028Z,98319.36
2018-06-29T18:12:00.157Z,98314.50
2018-06-29T18:14:32.925Z,98317.69
2018-06-29T18:17:02.103Z,98316.84
2018-06-29T18:19:31.216Z,98318.70
2018-06-29T18:22:00.305Z,98319.59
2018-06-29T18:24:29.280Z,98311.86
2018-06-29T18:26:58.417Z,98320.92
2018-06-29T18:29:27.900Z,98323.93
2018-06-29T18:31:57.196Z,98326.61
2018-06-29T18:34:26.334Z,98320.47
2018-06-29T18:36:55.526Z,98323.61
2018-06-29T18:39:28.434Z,98329.98
2018-06-29T18:41:58.019Z,98329.50
2018-06-29T18:44:27.317Z,98330.01
2018-06-29T18:46:56.485Z,98328.66
2018-06-29T18:49:25.584Z,98321.95
2018-06-29T18:51:54.670Z,98326.64
2018-06-29T18:54:23.768Z,98322.27
2018-06-29T18:56:53.307Z,98328.97
2018-06-29T18:59:25.781Z,98326.48
2018-06-29T19:01:55.352Z,98325.13
2018-06-29T19:04:24.442Z,98322.77
2018-06-29T19:06:53.489Z,98324.44
2018-06-29T19:09:23.051Z,98326.77
2018-06-29T19:11:52.144Z,98324.75
2018-06-29T19:14:21.164Z,98328.11
2018-06-29T19:16:50.346Z,98324.44
2018-06-29T19:19:19.388Z,98328.80
2018-06-29T19:21:48.498Z,98325.95
2018-06-29T19:24:17.879Z,98330.81
2018-06-29T19:26:46.994Z,98329.14
2018-06-29T19:29:16.188Z,98326.64
2018-06-29T19:31:45.618Z,98331.84
2018-06-29T19:34:14.863Z,98326.81
2018-06-29T19:36:43.828Z,98325.63
2018-06-29T19:39:13.868Z,98327.48
2018-06-29T19:41:43.269Z,98334.85
2018-06-29T19:44:15.283Z,98334.39
2018-06-29T19:46:44.297Z,98332.73
2018-06-29T19:49:16.458Z,98334.75
2018-06-29T19:51:45.449Z,98331.75
2018-06-29T19:54:15.875Z,98325.89
2018-06-29T19:56:45.318Z,98320.19
2018-06-29T19:59:14.350Z,98326.72
2018-06-29T20:01:43.879Z,98328.73
2018-06-29T20:04:13.095Z,98325.71
2018-06-29T20:06:42.208Z,98328.41
2018-06-29T20:09:13.455Z,98330.41
2018-06-29T20:11:42.453Z,98332.91
2018-06-29T20:14:14.513Z,98327.89
2018-06-29T20:16:43.727Z,98334.75
2018-06-29T20:19:13.714Z,98334.42
2018-06-29T20:21:43.260Z,98331.23
2018-06-29T20:24:12.385Z,98336.27
2018-06-29T20:26:41.515Z,98333.91
2018-06-29T20:29:10.777Z,98333.91
2018-06-29T20:31:39.958Z,98332.40
2018-06-29T20:34:11.460Z,98332.59
2018-06-29T20:36:40.519Z,98330.41
2018-06-29T20:39:12.038Z,98330.91
2018-06-29T20:41:41.272Z,98323.37
2018-06-29T20:44:10.781Z,98328.22
2018-06-29T20:46:39.969Z,98329.05
2018-06-29T20:49:09.295Z,98331.39
2018-06-29T20:51:38.399Z,98336.07
2018-06-29T20:54:07.842Z,98331.39
2018-06-29T20:56:37.045Z,98332.05
2018-06-29T20:59:06.178Z,98333.05
2018-06-29T21:01:35.677Z,98333.19
2018-06-29T21:04:05.039Z,98337.07
2018-06-29T21:06:34.125Z,98336.37
2018-06-29T21:09:03.831Z,98340.06
2018-06-29T21:11:33.032Z,98347.75
2018-06-29T21:14:02.057Z,98344.08
2018-06-29T21:16:31.170Z,98339.73
2018-06-29T21:19:00.447Z,98338.06
2018-06-29T21:21:29.693Z,98335.38
2018-06-29T21:23:59.334Z,98336.39
2018-06-29T21:26:28.495Z,98336.73
2018-06-29T21:28:57.808Z,98334.70
2018-06-29T21:31:28.068Z,98331.52
2018-06-29T21:33:57.365Z,98339.41
2018-06-29T21:36:26.645Z,98335.72
2018-06-29T21:38:56.111Z,98342.77
2018-06-29T21:41:25.238Z,98342.77
2018-06-29T21:43:54.259Z,98342.11
2018-06-29T21:46:23.447Z,98337.73
2018-06-29T21:48:52.725Z,98338.92
2018-06-29T21:51:21.778Z,98338.92
2018-06-29T21:53:51.315Z,98333.75
2018-06-29T21:56:20.438Z,98336.75
2018-06-29T21:58:49.628Z,98344.95
2018-06-29T22:01:19.185Z,98345.31
2018-06-29T22:03:48.397Z,98339.10
2018-06-29T22:06:17.678Z,98348.13
2018-06-29T22:08:46.968Z,98348.80
2018-06-29T22:11:16.282Z,98347.98
2018-06-29T22:13:45.418Z,98342.57
2018-06-29T22:16:14.694Z,98346.11
2018-06-29T22:18:43.814Z,98346.25
2018-06-29T22:21:12.922Z,98343.91
2018-06-29T22:23:41.919Z,98342.24
2018-06-29T22:26:11.096Z,98353.43
2018-06-29T22:28:40.139Z,98351.42
2018-06-29T22:31:09.795Z,98354.77
2018-06-29T22:33:38.973Z,98358.78
2018-06-29T22:36:08.149Z,98358.78
2018-06-29T22:38:37.467Z,98355.97
2018-06-29T22:41:06.797Z,98359.64
2018-06-29T22:43:36.295Z,98356.96
2018-06-29T22:46:06.757Z,98362.52
2018-06-29T22:48:35.721Z,98355.63
2018-06-29T22:51:05.036Z,98357.02
2018-06-29T22:53:34.615Z,98359.20
2018-06-29T22:56:03.814Z,98347.92
2018-06-29T22:58:33.247Z,98355.63
2018-06-29T23:01:02.928Z,98347.09
2018-06-29T23:03:37.292Z,98341.08
2018-06-29T23:06:06.500Z,98333.52
2018-06-29T23:08:35.633Z,98337.03
2018-06-29T23:11:04.729Z,98333.02
2018-06-29T23:13:33.952Z,98333.88
2018-06-29T23:16:03.024Z,98330.05
2018-06-29T23:18:32.094Z,98331.73
2018-06-29T23:21:01.271Z,98330.38
2018-06-29T23:23:30.581Z,98330.05
2018-06-29T23:25:59.640Z,98324.33
2018-06-29T23:28:29.394Z,98326.36
2018-06-29T23:30:58.663Z,98324.05
2018-06-29T23:33:27.910Z,98325.33
2018-06-29T23:35:56.950Z,98318.69
2018-06-29T23:38:26.100Z,98312.97
2018-06-29T23:40:55.172Z,98303.73
2018-06-29T23:43:24.498Z,98297.27
2018-06-29T23:45:53.772Z,98305.64
2018-06-29T23:48:22.956Z,98302.63
2018-06-29T23:50:52.221Z,98296.59
2018-06-29T23:53:21.805Z,98303.30
2018-06-29T23:55:50.879Z,98300.61
2018-06-29T23:58:20.033Z,98293.39
